Time;durP1;ratioP1;P1;durP2;ratioP2;P2;SDS_P1;SDS_P2;PMS_P1;PMS_P2;Temp;Humidity;BMP_temperature;BMP_pressure;BME280_temperature;BME280_humidity;BME280_pressure;Samples;Min_cycle;Max_cycle;Signal;HPM_P1;HPM_P2
2022/06/10 00:00:51;;;;;;;13.60;5.38;;;16.40;99.90;;;;;;5038064;28;20333;-75
2022/06/10 00:03:19;;;;;;;;;;;16.30;99.90;;;;;;5054465;28;20041;-75
2022/06/10 00:05:49;;;;;;;;;;;16.40;99.90;;;;;;5052760;28;20373;-74
2022/06/10 00:08:28;;;;;;;12.90;6.93;;;16.40;99.90;;;;;;5054498;28;19927;-75
2022/06/10 00:10:56;;;;;;;9.02;4.65;;;16.40;99.90;;;;;;5054251;28;20037;-75
2022/06/10 00:13:26;;;;;;;8.63;4.60;;;16.40;99.90;;;;;;5035810;28;20056;-75
2022/06/10 00:15:54;;;;;;;15.00;9.23;;;16.40;99.90;;;;;;5053611;28;20487;-75
2022/06/10 00:18:25;;;;;;;11.40;7.03;;;16.40;99.90;;;;;;5054030;28;20404;-75
2022/06/10 00:20:53;;;;;;;18.50;9.00;;;16.40;99.90;;;;;;5053140;28;20052;-75
2022/06/10 00:23:20;;;;;;;16.73;8.05;;;16.40;99.90;;;;;;5054393;28;20048;-74
2022/06/10 00:25:48;;;;;;;15.05;5.97;;;16.40;99.90;;;;;;5053124;28;20451;-75
2022/06/10 00:28:16;;;;;;;18.25;7.55;;;16.40;99.90;;;;;;5053970;28;20495;-74
2022/06/10 00:30:44;;;;;;;;;;;16.40;99.90;;;;;;5054700;28;20049;-75
2022/06/10 00:33:12;;;;;;;50.88;22.83;;;16.30;99.90;;;;;;5053340;28;19920;-74
2022/06/10 00:35:41;;;;;;;75.00;37.25;;;16.40;99.90;;;;;;5053911;28;20049;-74
2022/06/10 00:38:09;;;;;;;25.17;13.73;;;16.30;99.90;;;;;;5053814;28;20044;-75
2022/06/10 00:40:42;;;;;;;20.95;11.45;;;16.30;99.90;;;;;;5052768;28;20056;-74
2022/06/10 00:43:15;;;;;;;13.90;7.28;;;16.40;99.90;;;;;;5053372;28;20048;-75
2022/06/10 00:45:55;;;;;;;15.38;9.20;;;16.30;99.90;;;;;;5053371;28;20041;-75
2022/06/10 00:48:42;;;;;;;13.50;6.95;;;16.30;99.90;;;;;;5053993;28;20060;-74
2022/06/10 00:51:22;;;;;;;14.30;6.07;;;16.30;99.90;;;;;;5052959;28;20352;-74
2022/06/10 00:53:55;;;;;;;10.55;4.97;;;16.30;99.90;;;;;;5056076;28;20044;-75
2022/06/10 00:56:24;;;;;;;9.20;4.18;;;16.30;99.90;;;;;;5057351;28;20048;-75
2022/06/10 00:59:01;;;;;;;11.27;4.20;;;16.30;99.90;;;;;;5057159;28;20064;-75
2022/06/10 01:01:31;;;;;;;10.13;4.00;;;16.30;99.90;;;;;;5038840;28;20053;-75
2022/06/10 01:04:01;;;;;;;13.82;4.82;;;16.30;99.90;;;;;;5037806;28;20052;-75
2022/06/10 01:06:29;;;;;;;7.85;3.80;;;16.30;99.90;;;;;;5036041;28;20048;-75
2022/06/10 01:08:58;;;;;;;9.25;3.05;;;16.30;99.90;;;;;;5037375;28;20072;-74
2022/06/10 01:12:09;;;;;;;10.20;3.65;;;16.30;99.90;;;;;;5037076;28;20053;-75
2022/06/10 01:15:09;;;;;;;9.20;3.30;;;16.30;99.90;;;;;;5005542;28;20072;-75
2022/06/10 01:18:14;;;;;;;8.00;3.50;;;16.30;99.90;;;;;;5019783;28;20068;-75
2022/06/10 01:21:02;;;;;;;9.50;3.50;;;16.30;99.90;;;;;;5035844;28;20372;-75
2022/06/10 01:23:48;;;;;;;9.73;3.65;;;16.30;99.90;;;;;;5036833;28;20049;-74
2022/06/10 01:30:25;;;;;;;12.15;4.10;;;16.30;99.90;;;;;;5036996;28;20064;-75
2022/06/10 01:33:14;;;;;;;10.43;3.45;;;16.30;99.90;;;;;;5020206;28;20053;-74
2022/06/10 01:35:48;;;;;;;8.55;3.35;;;16.30;99.90;;;;;;5037239;28;20049;-75
2022/06/10 01:38:24;;;;;;;8.57;3.65;;;16.30;99.90;;;;;;5036594;28;20064;-75
2022/06/10 01:41:26;;;;;;;9.82;3.70;;;16.30;99.90;;;;;;5018112;28;20049;-75
2022/06/10 01:44:22;;;;;;;8.13;3.45;;;16.30;99.90;;;;;;5036826;28;20053;-74
2022/06/10 01:47:07;;;;;;;8.50;3.60;;;16.20;99.90;;;;;;5018037;28;20041;-74
2022/06/10 01:49:43;;;;;;;9.07;3.70;;;16.10;99.90;;;;;;5036477;28;20057;-75
2022/06/10 01:52:23;;;;;;;7.05;3.42;;;16.10;99.90;;;;;;5036547;28;20046;-74
2022/06/10 01:55:04;;;;;;;7.40;3.10;;;16.00;99.90;;;;;;5036567;28;20356;-74
2022/06/10 01:57:35;;;;;;;7.57;3.00;;;16.00;99.90;;;;;;5036260;28;20064;-75
2022/06/10 02:00:13;;;;;;;9.73;3.95;;;16.00;99.90;;;;;;5026878;28;20056;-74
2022/06/10 02:02:47;;;;;;;11.15;4.28;;;16.00;99.90;;;;;;5056757;28;20045;-75
2022/06/10 02:05:19;;;;;;;8.70;3.15;;;16.00;99.90;;;;;;5055270;28;20041;-75
2022/06/10 02:08:12;;;;;;;8.30;3.33;;;16.00;99.90;;;;;;5054345;28;20056;-74
2022/06/10 02:11:15;;;;;;;4.72;2.53;;;15.90;99.90;;;;;;5056218;28;20375;-74
2022/06/10 02:14:07;;;;;;;5.50;2.75;;;15.90;99.90;;;;;;5054771;28;20464;-74
2022/06/10 02:16:38;;;;;;;4.50;2.40;;;15.90;99.90;;;;;;5054344;28;20367;-75
2022/06/10 02:19:09;;;;;;;6.72;2.72;;;15.90;99.90;;;;;;5054108;28;20049;-74
2022/06/10 02:21:53;;;;;;;6.80;2.72;;;15.80;99.90;;;;;;5054928;28;20460;-74
2022/06/10 02:24:31;;;;;;;4.88;3.00;;;15.80;99.90;;;;;;5055919;28;20041;-74
2022/06/10 02:27:01;;;;;;;;;;;15.80;99.90;;;;;;5055062;28;20062;-75
2022/06/10 02:29:35;;;;;;;5.65;2.83;;;15.80;99.90;;;;;;5055727;28;19921;-74
2022/06/10 02:32:03;;;;;;;5.70;2.80;;;15.80;99.90;;;;;;5055708;28;20471;-75
2022/06/10 02:34:31;;;;;;;;;;;15.80;99.90;;;;;;5054784;28;20048;-74
2022/06/10 02:37:07;;;;;;;5.85;3.10;;;15.80;99.90;;;;;;5055337;28;19920;-74
2022/06/10 02:39:51;;;;;;;8.30;3.30;;;15.80;99.90;;;;;;5054408;28;20049;-74
2022/06/10 02:42:18;;;;;;;6.72;3.53;;;15.80;99.90;;;;;;5055748;28;20494;-74
2022/06/10 02:45:12;;;;;;;8.07;3.78;;;15.90;99.90;;;;;;5055325;28;20460;-74
2022/06/10 02:48:03;;;;;;;10.05;3.95;;;15.80;99.90;;;;;;5054074;28;20486;-74
2022/06/10 02:50:32;;;;;;;10.63;4.30;;;15.80;99.90;;;;;;5055644;28;20053;-75
2022/06/10 02:53:03;;;;;;;14.70;4.80;;;15.80;99.90;;;;;;5054041;28;20060;-74
2022/06/10 02:55:31;;;;;;;16.42;5.30;;;15.80;99.90;;;;;;5055315;28;20053;-74
2022/06/10 03:01:13;;;;;;;14.88;5.63;;;15.80;99.90;;;;;;5041330;28;20045;-74
2022/06/10 03:03:59;;;;;;;20.55;6.72;;;15.80;99.90;;;;;;5035304;28;20053;-74
2022/06/10 03:06:35;;;;;;;20.85;7.63;;;15.80;99.90;;;;;;5033922;28;20049;-74
2022/06/10 03:09:11;;;;;;;23.40;9.05;;;15.80;99.90;;;;;;5034911;28;20045;-74
2022/06/10 03:11:48;;;;;;;21.23;9.13;;;15.80;99.90;;;;;;5034999;28;20045;-75
2022/06/10 03:14:55;;;;;;;28.25;9.63;;;15.80;99.90;;;;;;5033830;28;20455;-74
2022/06/10 03:17:42;;;;;;;24.83;8.07;;;15.80;99.90;;;;;;5035419;28;20049;-74
2022/06/10 03:20:21;;;;;;;33.42;7.82;;;15.80;99.90;;;;;;5033752;28;20052;-74
2022/06/10 03:22:57;;;;;;;35.03;8.52;;;15.70;99.90;;;;;;5034721;28;20372;-74
2022/06/10 03:25:33;;;;;;;32.00;8.32;;;15.70;99.90;;;;;;5034999;28;20041;-74
2022/06/10 03:28:24;;;;;;;33.00;7.82;;;15.70;99.90;;;;;;5033621;28;20053;-74
2022/06/10 03:31:00;;;;;;;35.65;8.20;;;15.70;99.90;;;;;;5034683;28;20050;-74
2022/06/10 03:33:34;;;;;;;33.00;8.15;;;15.70;99.90;;;;;;5016098;28;20049;-74
2022/06/10 03:36:10;;;;;;;33.45;7.88;;;15.70;99.90;;;;;;5035014;28;20068;-74
2022/06/10 03:38:44;;;;;;;29.42;7.72;;;15.70;99.90;;;;;;5034932;28;20050;-74
2022/06/10 03:41:18;;;;;;;37.53;7.95;;;15.70;99.90;;;;;;5033509;28;20045;-74
2022/06/10 03:43:49;;;;;;;28.85;7.40;;;15.60;99.90;;;;;;5034658;28;20494;-74
2022/06/10 03:46:19;;;;;;;28.20;7.18;;;15.60;99.90;;;;;;5033317;28;20480;-74
2022/06/10 03:48:48;;;;;;;38.58;7.65;;;15.60;99.90;;;;;;5034494;28;20053;-75
2022/06/10 03:51:17;;;;;;;35.45;6.82;;;15.60;99.90;;;;;;5017437;28;20053;-74
2022/06/10 03:53:47;;;;;;;31.05;7.35;;;15.60;99.90;;;;;;5033526;28;20057;-74
2022/06/10 03:56:21;;;;;;;32.20;7.20;;;15.60;99.90;;;;;;5016989;28;20399;-74
2022/06/10 03:58:49;;;;;;;33.75;6.65;;;15.60;99.90;;;;;;5034824;28;20045;-74
2022/06/10 04:01:17;;;;;;;30.42;6.63;;;15.50;99.90;;;;;;5033024;28;20046;-74
2022/06/10 04:03:45;;;;;;;39.17;7.40;;;15.50;99.90;;;;;;5034460;28;20065;-74
2022/06/10 04:06:13;;;;;;;33.40;7.50;;;15.50;99.90;;;;;;5033351;28;20046;-74
2022/06/10 04:09:01;;;;;;;33.83;7.40;;;15.50;99.90;;;;;;5034184;28;20045;-73
2022/06/10 04:11:32;;;;;;;33.38;7.45;;;15.50;99.90;;;;;;5034648;28;20049;-74
2022/06/10 04:14:00;;;;;;;;;;;15.50;99.90;;;;;;5033557;28;20464;-74
2022/06/10 04:16:28;;;;;;;;;;;15.50;99.90;;;;;;5034787;28;20362;-74
2022/06/10 04:18:56;;;;;;;32.70;7.03;;;15.50;99.90;;;;;;5017380;28;20355;-74
2022/06/10 04:21:24;;;;;;;34.40;6.82;;;15.50;99.90;;;;;;5032908;28;20049;-74
2022/06/10 04:23:51;;;;;;;39.95;7.63;;;15.40;99.90;;;;;;5016899;28;20045;-74
2022/06/10 04:26:19;;;;;;;32.45;6.97;;;15.40;99.90;;;;;;5033034;28;20045;-74
2022/06/10 04:28:47;;;;;;;36.05;7.07;;;15.40;99.90;;;;;;5037723;28;20044;-74
2022/06/10 04:31:14;;;;;;;36.85;7.28;;;15.40;99.90;;;;;;5037895;28;20054;-74
2022/06/10 04:33:42;;;;;;;34.83;7.78;;;15.40;99.90;;;;;;5036776;28;20395;-74
2022/06/10 04:36:14;;;;;;;34.70;6.88;;;15.40;99.90;;;;;;5037795;28;20068;-74
2022/06/10 04:38:42;;;;;;;37.47;6.50;;;15.50;99.90;;;;;;5038143;28;20045;-74
2022/06/10 04:41:10;;;;;;;37.60;7.80;;;15.50;99.90;;;;;;5036574;28;20041;-74
2022/06/10 04:43:38;;;;;;;;;;;15.60;99.90;;;;;;5038337;28;20056;-74
2022/06/10 04:46:08;;;;;;;37.70;7.20;;;15.60;99.90;;;;;;5036869;28;20351;-74
2022/06/10 04:48:35;;;;;;;39.90;7.18;;;15.60;99.90;;;;;;5037737;28;20487;-74
2022/06/10 04:51:04;;;;;;;31.60;6.90;;;15.60;99.90;;;;;;5037571;28;20045;-74
2022/06/10 04:53:31;;;;;;;31.92;6.63;;;15.70;99.90;;;;;;5019470;28;20368;-74
2022/06/10 04:55:59;;;;;;;33.15;6.78;;;15.70;99.90;;;;;;5037552;28;20045;-74
2022/06/10 04:58:26;;;;;;;32.15;6.65;;;15.80;99.90;;;;;;5037361;28;20057;-74
2022/06/10 05:00:54;;;;;;;39.28;6.85;;;15.80;99.90;;;;;;5035966;28;20061;-74
2022/06/10 05:03:21;;;;;;;36.85;6.65;;;15.90;99.90;;;;;;5037694;28;20045;-74
2022/06/10 05:05:49;;;;;;;30.40;6.35;;;15.90;99.90;;;;;;5036139;28;20042;-74
2022/06/10 05:08:18;;;;;;;30.48;6.30;;;16.00;99.90;;;;;;5019833;28;20376;-74
2022/06/10 05:10:47;;;;;;;35.60;6.25;;;16.00;99.90;;;;;;5037298;28;20053;-75
2022/06/10 05:13:16;;;;;;;28.80;6.15;;;16.10;99.90;;;;;;5018973;28;20042;-74
2022/06/10 05:15:44;;;;;;;30.00;6.43;;;16.10;99.90;;;;;;5037025;28;20372;-74
2022/06/10 05:18:14;;;;;;;29.23;6.47;;;16.10;99.90;;;;;;5037275;28;20049;-74
2022/06/10 05:20:44;;;;;;;28.33;5.72;;;16.10;99.90;;;;;;5035922;28;20049;-74
2022/06/10 05:23:14;;;;;;;31.88;5.70;;;16.10;99.90;;;;;;5037100;28;20364;-74
2022/06/10 05:25:44;;;;;;;26.45;5.90;;;16.20;99.90;;;;;;5036174;28;20372;-75
2022/06/10 05:28:12;;;;;;;;;;;16.20;99.90;;;;;;5037765;28;20064;-74
2022/06/10 05:30:40;;;;;;;28.38;5.95;;;16.20;99.90;;;;;;5019679;28;19928;-74
2022/06/10 05:33:12;;;;;;;25.27;5.53;;;16.30;99.90;;;;;;5035658;28;20068;-74
2022/06/10 05:35:41;;;;;;;29.55;6.25;;;16.30;99.90;;;;;;5019552;28;20057;-74
2022/06/10 05:38:09;;;;;;;31.65;6.13;;;16.30;99.90;;;;;;5036521;28;20049;-73
2022/06/10 05:40:38;;;;;;;31.60;6.07;;;16.40;99.90;;;;;;5035430;28;20460;-73
2022/06/10 05:43:06;;;;;;;31.08;6.55;;;16.40;99.90;;;;;;5037032;28;20049;-75
2022/06/10 05:45:42;;;;;;;22.98;6.20;;;16.40;99.90;;;;;;5036487;28;20049;-75
2022/06/10 05:48:11;;;;;;;33.00;6.20;;;16.40;99.90;;;;;;5036700;28;20041;-74
2022/06/10 05:50:42;;;;;;;37.50;6.32;;;16.40;99.90;;;;;;5036373;28;20049;-74
2022/06/10 05:53:12;;;;;;;32.55;6.55;;;16.40;99.90;;;;;;5036070;28;20383;-75
2022/06/10 05:55:40;;;;;;;32.75;6.75;;;16.40;99.90;;;;;;5036767;28;20048;-73
2022/06/10 05:58:09;;;;;;;33.97;6.97;;;16.40;99.90;;;;;;5036219;28;20054;-74
2022/06/10 06:00:37;;;;;;;34.88;6.57;;;16.40;99.90;;;;;;5035836;28;20052;-74
2022/06/10 06:03:04;;;;;;;32.80;7.05;;;16.40;99.90;;;;;;5056280;28;20494;-74
2022/06/10 06:05:34;;;;;;;33.45;7.22;;;16.50;99.90;;;;;;5056004;28;20041;-74
2022/06/10 06:08:02;;;;;;;33.00;7.30;;;16.50;99.90;;;;;;5055005;28;20056;-74
2022/06/10 06:10:30;;;;;;;38.35;6.68;;;16.60;99.90;;;;;;5056024;28;20057;-74
2022/06/10 06:12:58;;;;;;;35.95;7.63;;;16.60;99.90;;;;;;5054127;28;20056;-74
2022/06/10 06:15:26;;;;;;;39.08;7.25;;;16.50;99.90;;;;;;5055866;28;20056;-74
2022/06/10 06:17:54;;;;;;;34.30;7.00;;;16.40;99.90;;;;;;5055214;28;20049;-74
2022/06/10 06:20:22;;;;;;;37.03;6.65;;;16.30;99.90;;;;;;5054597;28;20055;-74
2022/06/10 06:22:53;;;;;;;35.55;6.63;;;16.30;99.90;;;;;;5056146;28;20045;-74
2022/06/10 06:25:21;;;;;;;;;;;16.20;99.90;;;;;;5056275;28;20041;-74
2022/06/10 06:27:50;;;;;;;36.33;7.38;;;16.20;99.90;;;;;;5053874;28;19920;-75
2022/06/10 06:30:19;;;;;;;30.90;6.47;;;16.20;99.90;;;;;;5055531;28;20053;-74
2022/06/10 06:32:47;;;;;;;33.50;6.80;;;16.20;99.90;;;;;;5055070;28;20049;-74
2022/06/10 06:35:15;;;;;;;31.25;6.55;;;16.20;99.90;;;;;;5055502;28;20052;-74
2022/06/10 06:37:43;;;;;;;;;;;16.20;99.90;;;;;;5056123;28;20112;-74
2022/06/10 06:40:12;;;;;;;32.72;7.18;;;16.30;99.90;;;;;;5054384;28;19928;-74
2022/06/10 06:42:39;;;;;;;37.63;7.82;;;16.30;99.90;;;;;;5055685;28;20464;-77
2022/06/10 06:45:10;;;;;;;34.42;7.75;;;16.20;99.90;;;;;;5037657;28;20383;-74
2022/06/10 06:47:53;;;;;;;35.83;6.80;;;16.30;99.90;;;;;;5054466;28;20041;-75
2022/06/10 06:50:26;;;;;;;41.38;7.97;;;16.30;99.90;;;;;;5055774;28;20053;-75
2022/06/10 06:52:54;;;;;;;34.25;7.38;;;16.30;99.90;;;;;;5053676;28;20053;-73
2022/06/10 06:55:34;;;;;;;33.22;7.40;;;16.30;99.90;;;;;;5055226;28;20045;-74
2022/06/10 06:58:03;;;;;;;33.60;7.50;;;16.40;99.90;;;;;;5054961;28;20049;-73
2022/06/10 07:00:31;;;;;;;29.20;6.82;;;16.40;99.90;;;;;;5044008;28;20049;-74
2022/06/10 07:02:59;;;;;;;31.33;6.25;;;16.50;99.90;;;;;;5035123;28;20050;-74
2022/06/10 07:05:26;;;;;;;36.45;7.00;;;16.50;99.90;;;;;;5035017;28;20049;-74
2022/06/10 07:07:54;;;;;;;37.00;7.53;;;16.50;99.90;;;;;;5033837;28;20129;-74
2022/06/10 07:10:22;;;;;;;31.90;7.05;;;16.60;99.90;;;;;;5035010;28;20046;-74
2022/06/10 07:12:50;;;;;;;29.88;6.22;;;16.60;99.90;;;;;;5034393;28;20049;-74
2022/06/10 07:15:19;;;;;;;37.28;7.00;;;16.70;99.90;;;;;;5018400;28;20056;-74
2022/06/10 07:17:47;;;;;;;31.23;7.25;;;16.80;99.90;;;;;;5034926;28;20041;-76
2022/06/10 07:20:22;;;;;;;29.10;6.78;;;16.80;99.90;;;;;;5030422;28;20050;-75
2022/06/10 07:22:50;;;;;;;30.27;6.32;;;16.90;99.90;;;;;;5030239;28;20041;-74
2022/06/10 07:25:19;;;;;;;27.30;6.05;;;16.90;99.90;;;;;;5034705;28;20041;-74
2022/06/10 07:27:47;;;;;;;28.52;6.32;;;17.10;99.90;;;;;;5015286;28;20056;-72
2022/06/10 07:30:17;;;;;;;26.67;5.82;;;17.30;99.90;;;;;;5014106;28;20042;-73
2022/06/10 07:32:45;;;;;;;35.08;6.60;;;17.60;99.90;;;;;;5013973;28;20060;-73
2022/06/10 07:35:13;;;;;;;;;;;17.80;99.90;;;;;;5015177;28;20060;-73
2022/06/10 07:37:41;;;;;;;21.67;5.60;;;18.00;99.90;;;;;;5015024;28;19921;-72
2022/06/10 07:41:56;;;;;;;;;;;18.10;99.90;;;;;;4997013;28;20380;-72
2022/06/10 07:43:09;;;;;;;31.60;6.57;;;18.40;99.90;;;;;;5014680;28;19921;-73
2022/06/10 07:45:37;;;;;;;26.50;5.75;;;18.40;99.90;;;;;;5014622;28;20057;-73
2022/06/10 07:48:06;;;;;;;30.05;5.93;;;18.40;99.90;;;;;;5013679;28;20049;-73
2022/06/10 07:50:33;;;;;;;32.13;6.43;;;18.40;99.90;;;;;;4997589;28;20042;-72
2022/06/10 07:53:01;;;;;;;41.10;10.82;;;18.30;99.90;;;;;;5013864;28;20046;-74
2022/06/10 07:55:28;;;;;;;33.70;6.22;;;18.30;99.90;;;;;;5014837;28;20093;-73
2022/06/10 07:57:56;;;;;;;33.75;6.60;;;18.20;99.90;;;;;;5014642;28;20053;-74
2022/06/10 08:00:25;;;;;;;27.48;5.68;;;18.30;99.90;;;;;;5013681;28;20054;-74
2022/06/10 08:02:53;;;;;;;29.10;5.95;;;18.30;99.90;;;;;;5016832;28;20329;-74
2022/06/10 08:05:21;;;;;;;26.30;5.78;;;18.30;99.90;;;;;;5018841;28;20042;-73
2022/06/10 08:07:48;;;;;;;34.20;8.75;;;18.30;99.90;;;;;;5000422;28;20064;-73
2022/06/10 08:10:24;;;;;;;25.42;7.65;;;18.30;99.90;;;;;;5018503;28;20117;-73
2022/06/10 08:12:52;;;;;;;28.77;8.57;;;18.40;99.90;;;;;;5017657;28;20054;-74
2022/06/10 08:15:21;;;;;;;27.27;6.57;;;18.50;99.90;;;;;;5001632;28;20057;-74
2022/06/10 08:17:50;;;;;;;25.63;5.85;;;18.60;99.90;;;;;;5018287;28;20064;-74
2022/06/10 08:20:24;;;;;;;27.27;6.28;;;18.60;99.90;;;;;;5017364;28;20054;-73
2022/06/10 08:22:51;;;;;;;26.25;5.88;;;18.70;99.90;;;;;;5000965;28;20480;-74
2022/06/10 08:25:20;;;;;;;26.35;5.85;;;18.70;99.90;;;;;;5018468;28;20057;-75
2022/06/10 08:27:50;;;;;;;29.75;5.97;;;18.70;99.90;;;;;;5000164;28;20053;-74
2022/06/10 08:30:17;;;;;;;25.70;5.90;;;18.70;99.90;;;;;;5018315;28;20421;-73
2022/06/10 08:32:45;;;;;;;24.58;5.50;;;18.70;99.90;;;;;;5017245;28;20061;-73
2022/06/10 08:35:15;;;;;;;27.95;6.75;;;18.70;99.90;;;;;;5018178;28;20054;-73
2022/06/10 08:37:43;;;;;;;24.77;5.88;;;18.60;99.90;;;;;;5018446;28;20069;-74
2022/06/10 08:40:24;;;;;;;29.42;6.35;;;18.50;99.90;;;;;;4999892;28;20061;-74
2022/06/10 08:42:54;;;;;;;26.58;6.30;;;18.30;99.90;;;;;;4984899;28;20384;-73
2022/06/10 08:45:34;;;;;;;27.75;5.88;;;18.30;99.90;;;;;;5018044;28;20380;-74
2022/06/10 08:48:29;;;;;;;21.75;5.30;;;18.30;99.90;;;;;;5016709;28;20045;-74
2022/06/10 08:51:26;;;;;;;25.40;5.68;;;18.40;99.90;;;;;;4984624;28;20052;-74
2022/06/10 08:54:19;;;;;;;21.48;5.22;;;18.80;99.90;;;;;;4999458;28;20380;-73
2022/06/10 08:56:50;;;;;;;23.67;5.53;;;19.30;99.50;;;;;;5018051;28;20046;-73
2022/06/10 08:59:35;;;;;;;21.15;4.90;;;19.60;99.70;;;;;;4999861;28;20042;-74
2022/06/10 09:02:46;;;;;;;21.23;4.53;;;19.80;98.70;;;;;;4983063;28;20054;-74
2022/06/10 09:05:34;;;;;;;21.85;4.55;;;20.00;97.70;;;;;;4984592;28;20054;-74
2022/06/10 09:08:13;;;;;;;27.08;5.55;;;20.00;96.60;;;;;;4998089;28;20046;-74
2022/06/10 09:11:06;;;;;;;19.30;4.70;;;19.90;97.10;;;;;;4999355;28;20046;-73
2022/06/10 09:13:46;;;;;;;17.50;4.10;;;19.90;96.80;;;;;;5014902;28;20049;-73
2022/06/10 09:16:29;;;;;;;20.77;4.53;;;19.90;96.30;;;;;;4999377;28;20049;-73
2022/06/10 09:19:29;;;;;;;18.65;4.85;;;20.00;95.70;;;;;;5016193;28;20057;-74
2022/06/10 09:22:21;;;;;;;15.63;4.25;;;20.00;95.70;;;;;;4998838;28;20046;-75
2022/06/10 09:25:12;;;;;;;20.70;4.78;;;20.20;95.80;;;;;;5016467;28;20046;-73
2022/06/10 09:27:48;;;;;;;20.23;5.18;;;20.40;95.50;;;;;;4997721;28;20045;-73
2022/06/10 09:30:18;;;;;;;19.48;4.72;;;20.80;95.20;;;;;;5016157;28;20046;-73
2022/06/10 09:33:06;;;;;;;20.48;5.25;;;20.90;94.90;;;;;;5015178;28;20085;-73
2022/06/10 09:35:53;;;;;;;19.42;4.40;;;21.10;94.00;;;;;;5016266;28;20050;-74
2022/06/10 09:38:26;;;;;;;22.65;5.25;;;21.20;94.30;;;;;;5016200;28;20050;-74
2022/06/10 09:41:11;;;;;;;17.45;4.38;;;21.40;94.40;;;;;;5014950;28;20061;-73
2022/06/10 09:44:02;;;;;;;21.58;4.78;;;21.60;93.50;;;;;;5015897;28;20050;-74
2022/06/10 09:46:52;;;;;;;22.67;5.10;;;21.70;93.30;;;;;;5014976;28;20057;-74
2022/06/10 09:49:38;;;;;;;18.80;4.63;;;21.90;92.90;;;;;;5016063;28;20053;-74
2022/06/10 09:52:29;;;;;;;19.27;4.82;;;22.00;93.50;;;;;;5016011;28;20053;-74
2022/06/10 09:55:28;;;;;;;15.80;4.25;;;22.10;93.50;;;;;;5016041;28;20046;-73
2022/06/10 09:58:12;;;;;;;17.83;4.70;;;22.10;93.30;;;;;;4998699;28;20475;-73
2022/06/10 10:00:57;;;;;;;19.25;4.80;;;22.10;92.80;;;;;;4974088;28;1222635;-74
2022/06/10 10:03:37;;;;;;;20.52;4.30;;;22.10;92.90;;;;;;5036921;28;20050;-74
2022/06/10 10:06:27;;;;;;;15.98;4.40;;;22.20;92.20;;;;;;5035451;28;20041;-74
2022/06/10 10:09:16;;;;;;;17.98;4.65;;;22.20;92.70;;;;;;5035614;28;20046;-73
2022/06/10 10:11:51;;;;;;;22.52;4.68;;;22.30;92.90;;;;;;5035756;28;20459;-74
2022/06/10 10:14:46;;;;;;;18.58;4.68;;;22.30;92.80;;;;;;5035220;28;20045;-74
2022/06/10 10:17:25;;;;;;;17.98;4.70;;;22.30;92.80;;;;;;5036038;28;20042;-77
2022/06/10 10:20:13;;;;;;;17.73;4.22;;;22.10;92.60;;;;;;5035551;28;20041;-77
2022/06/10 10:22:40;;;;;;;;;;;22.00;93.20;;;;;;5035790;28;20049;-73
2022/06/10 10:25:18;;;;;;;21.20;4.90;;;21.90;93.60;;;;;;5035132;28;20274;-72
2022/06/10 10:27:49;;;;;;;24.85;4.95;;;21.90;93.00;;;;;;5033911;28;20491;-75
2022/06/10 10:30:28;;;;;;;22.02;4.75;;;21.90;92.60;;;;;;5036377;28;20488;-75
2022/06/10 10:33:00;;;;;;;21.52;5.45;;;21.70;92.90;;;;;;5033817;28;20056;-76
2022/06/10 10:35:32;;;;;;;25.40;5.35;;;21.50;93.20;;;;;;5035300;28;20041;-73
2022/06/10 10:38:04;;;;;;;19.20;5.60;;;21.30;93.30;;;;;;5035873;28;20060;-72
2022/06/10 10:40:44;;;;;;;17.55;4.57;;;21.10;93.80;;;;;;5034596;28;20045;-72
2022/06/10 10:43:24;;;;;;;17.42;4.40;;;21.00;93.40;;;;;;5035536;28;20045;-72
2022/06/10 10:46:28;;;;;;;24.83;4.90;;;21.20;93.60;;;;;;5034624;28;20049;-72
2022/06/10 10:48:57;;;;;;;19.52;5.15;;;21.50;93.00;;;;;;5042283;28;20037;-72
2022/06/10 10:51:40;;;;;;;19.45;4.60;;;21.90;92.80;;;;;;5055295;28;20345;-72
2022/06/10 10:54:30;;;;;;;24.67;5.22;;;22.10;92.20;;;;;;5053584;28;20041;-73
2022/06/10 10:56:59;;;;;;;18.85;4.70;;;22.20;92.20;;;;;;5046567;28;20463;-73
2022/06/10 10:59:40;;;;;;;20.48;4.70;;;22.10;92.30;;;;;;5044878;28;20127;-76
2022/06/10 11:02:30;;;;;;;20.98;4.70;;;22.00;92.10;;;;;;5017975;28;20053;-76
2022/06/10 11:05:19;;;;;;;17.83;4.43;;;22.00;91.50;;;;;;5018428;28;20045;-72
2022/06/10 11:08:03;;;;;;;23.00;4.80;;;22.10;92.00;;;;;;5022973;28;20045;-73
2022/06/10 11:10:34;;;;;;;21.23;4.70;;;22.20;91.50;;;;;;5030796;28;20045;-74
2022/06/10 11:13:06;;;;;;;18.73;4.72;;;22.30;90.70;;;;;;5014454;28;20046;-76
2022/06/10 11:15:35;;;;;;;17.33;4.22;;;22.40;91.20;;;;;;4998335;28;20042;-74
2022/06/10 11:18:02;;;;;;;18.42;4.20;;;22.40;90.30;;;;;;5017588;28;20384;-72
2022/06/10 11:20:33;;;;;;;18.58;4.60;;;22.30;90.50;;;;;;5034095;28;20080;-75
2022/06/10 11:23:26;;;;;;;21.20;4.97;;;22.30;89.90;;;;;;5027108;28;20049;-74
2022/06/10 11:26:14;;;;;;;20.65;4.72;;;22.30;90.20;;;;;;5033889;28;20049;-75
2022/06/10 11:28:44;;;;;;;21.85;4.78;;;22.20;90.10;;;;;;5034968;28;20372;-73
2022/06/10 11:31:21;;;;;;;23.92;4.78;;;22.10;90.30;;;;;;5034676;28;20038;-75
2022/06/10 11:33:54;;;;;;;18.05;4.47;;;22.10;90.70;;;;;;5016718;28;20076;-74
2022/06/10 11:36:27;;;;;;;20.63;5.07;;;22.10;90.70;;;;;;5034783;28;20053;-72
2022/06/10 11:39:27;;;;;;;21.80;4.53;;;22.20;90.60;;;;;;5034522;28;20057;-74
2022/06/10 11:42:17;;;;;;;20.92;5.03;;;22.20;88.60;;;;;;4999565;28;20384;-72
2022/06/10 11:45:13;;;;;;;15.98;4.20;;;22.40;88.30;;;;;;5013765;28;20057;-72
2022/06/10 11:47:48;;;;;;;19.67;4.38;;;22.50;89.00;;;;;;5013683;28;20045;-72
2022/06/10 11:50:25;;;;;;;18.25;4.72;;;22.70;89.40;;;;;;4997901;28;20038;-73
2022/06/10 11:53:02;;;;;;;20.35;4.57;;;22.80;88.30;;;;;;5013673;28;20053;-72
2022/06/10 11:55:38;;;;;;;22.70;5.28;;;23.00;87.60;;;;;;5014870;28;20053;-73
2022/06/10 12:01:02;;;;;;;19.67;4.82;;;22.80;88.30;;;;;;5012511;28;20057;-72
2022/06/10 12:03:42;;;;;;;24.80;5.20;;;22.90;89.90;;;;;;5014533;28;20046;-72
2022/06/10 12:06:21;;;;;;;21.88;4.95;;;23.00;89.70;;;;;;4997041;28;20480;-72
2022/06/10 12:08:51;;;;;;;20.08;4.38;;;23.10;88.70;;;;;;5015020;28;20041;-72
2022/06/10 12:11:31;;;;;;;21.52;4.90;;;23.10;89.30;;;;;;5014720;28;20042;-72
2022/06/10 12:14:25;;;;;;;20.92;4.88;;;23.10;88.60;;;;;;5013534;28;20432;-72
2022/06/10 12:17:09;;;;;;;26.50;5.45;;;23.20;88.60;;;;;;5014595;28;20061;-73
2022/06/10 12:19:47;;;;;;;25.60;5.13;;;23.40;90.10;;;;;;4996678;28;20061;-73
2022/06/10 12:22:15;;;;;;;;;;;23.50;89.80;;;;;;4997661;28;20064;-73
2022/06/10 12:24:45;;;;;;;;;;;23.50;89.30;;;;;;4997666;28;19922;-76
2022/06/10 12:27:37;;;;;;;25.98;5.18;;;23.60;90.20;;;;;;4996600;28;19921;-77
2022/06/10 12:30:20;;;;;;;21.80;4.85;;;23.70;88.40;;;;;;4997211;28;20064;-76
2022/06/10 12:32:54;;;;;;;23.02;5.45;;;23.70;88.90;;;;;;5012631;28;20376;-72
2022/06/10 12:35:28;;;;;;;23.80;5.10;;;23.70;88.20;;;;;;4997217;28;20061;-73
2022/06/10 12:38:04;;;;;;;24.80;5.38;;;23.70;88.50;;;;;;5014219;28;20491;-72
2022/06/10 12:41:01;;;;;;;24.02;4.70;;;23.60;88.20;;;;;;4995965;28;20372;-72
2022/06/10 12:43:38;;;;;;;22.75;4.85;;;23.60;87.30;;;;;;5013898;28;20042;-72
2022/06/10 12:46:36;;;;;;;85.47;24.23;;;23.70;88.00;;;;;;4995782;28;20065;-71
2022/06/10 12:49:36;;;;;;;24.95;6.05;;;23.80;88.40;;;;;;5016835;28;20506;-74
2022/06/10 12:52:32;;;;;;;29.83;11.07;;;23.80;89.00;;;;;;5018213;28;20483;-73
2022/06/10 12:55:21;;;;;;;30.02;8.45;;;23.80;86.80;;;;;;5018095;28;20061;-73
2022/06/10 12:57:51;;;;;;;27.42;7.65;;;23.80;87.70;;;;;;5017666;28;20349;-73
2022/06/10 13:00:18;;;;;;;24.48;5.68;;;23.80;89.00;;;;;;5016323;28;20061;-72
2022/06/10 13:02:50;;;;;;;19.27;5.43;;;23.80;89.50;;;;;;5000556;28;20049;-73
2022/06/10 13:05:29;;;;;;;24.00;5.43;;;23.80;90.00;;;;;;5000733;28;20042;-72
2022/06/10 13:07:58;;;;;;;19.20;4.65;;;24.00;89.50;;;;;;5016494;28;20575;-74
2022/06/10 13:10:29;;;;;;;18.10;5.18;;;24.10;88.40;;;;;;5000121;28;20042;-72
2022/06/10 13:13:21;;;;;;;24.60;5.47;;;24.20;87.00;;;;;;4999772;28;20050;-73
2022/06/10 13:15:53;;;;;;;24.23;4.93;;;24.10;87.70;;;;;;5017708;28;20046;-73
2022/06/10 13:18:29;;;;;;;22.80;6.20;;;24.10;87.90;;;;;;5000628;28;20038;-74
2022/06/10 13:21:15;;;;;;;23.98;7.35;;;24.10;86.90;;;;;;5016116;28;20038;-76
2022/06/10 13:24:10;;;;;;;33.65;9.55;;;24.20;86.70;;;;;;5000103;28;20069;-74
2022/06/10 13:26:38;;;;;;;35.75;8.02;;;24.80;87.10;;;;;;4999027;28;20374;-73
2022/06/10 13:29:14;;;;;;;34.05;11.30;;;25.80;85.10;;;;;;5017205;28;20042;-75
2022/06/10 13:31:52;;;;;;;25.63;5.95;;;26.30;84.30;;;;;;5016752;28;20046;-75
2022/06/10 13:34:27;;;;;;;18.02;5.10;;;27.20;83.80;;;;;;5014875;28;20054;-75
2022/06/10 13:37:18;;;;;;;23.77;6.82;;;28.40;80.10;;;;;;5018982;28;20471;-77